Time;durP1;ratioP1;P1;durP2;ratioP2;P2;SDS_P1;SDS_P2;PMS_P1;PMS_P2;Temp;Humidity;BMP_temperature;BMP_pressure;BME280_temperature;BME280_humidity;BME280_pressure;Samples;Min_cycle;Max_cycle;Signal;HPM_P1;HPM_P2
2022/07/02 00:00:19;;;;;;;9.77;5.65;;;16.60;55.30;;;;;;5054477;28;20029;-82
2022/07/02 00:02:49;;;;;;;9.88;6.53;;;16.60;55.50;;;;;;5052668;28;20055;-82
2022/07/02 00:05:20;;;;;;;9.60;6.68;;;16.60;55.60;;;;;;5035866;28;20028;-82
2022/07/02 00:07:46;;;;;;;8.20;5.53;;;16.60;56.30;;;;;;5036001;28;20021;-83
2022/07/02 00:10:13;;;;;;;13.30;6.70;;;16.60;55.70;;;;;;5053952;28;20029;-84
2022/07/02 00:12:40;;;;;;;;;;;16.60;55.80;;;;;;5054367;28;20391;-83
2022/07/02 00:15:07;;;;;;;10.43;6.10;;;16.60;55.10;;;;;;5035730;28;19914;-82
2022/07/02 00:17:33;;;;;;;13.75;6.88;;;16.50;55.80;;;;;;5054182;28;20029;-83
2022/07/02 00:20:01;;;;;;;10.30;5.68;;;16.50;55.90;;;;;;5053936;28;20033;-83
2022/07/02 00:22:28;;;;;;;7.53;5.28;;;16.50;56.10;;;;;;5042673;28;20033;-82
2022/07/02 00:24:54;;;;;;;13.48;5.72;;;16.50;56.00;;;;;;5053847;28;20025;-81
2022/07/02 00:27:20;;;;;;;10.82;6.10;;;16.50;55.80;;;;;;5050666;28;20536;-83
2022/07/02 00:29:54;;;;;;;9.65;6.18;;;16.50;55.90;;;;;;5053862;28;20037;-82
2022/07/02 00:32:20;;;;;;;15.00;6.25;;;16.50;56.10;;;;;;5040087;28;20037;-83
2022/07/02 00:34:47;;;;;;;12.70;6.68;;;16.50;56.10;;;;;;5058953;28;20073;-83
2022/07/02 00:37:16;;;;;;;6.57;5.65;;;16.60;56.10;;;;;;5054433;28;20459;-81
2022/07/02 00:39:42;;;;;;;15.40;6.60;;;16.60;56.10;;;;;;5032178;28;20141;-82
2022/07/02 00:42:09;;;;;;;14.85;6.45;;;16.50;56.50;;;;;;5052895;28;20021;-83
2022/07/02 00:44:36;;;;;;;10.07;5.05;;;16.50;56.30;;;;;;5035234;28;20135;-84
2022/07/02 00:47:07;;;;;;;9.23;4.82;;;16.50;56.50;;;;;;5053136;28;20471;-83
2022/07/02 00:49:34;;;;;;;12.55;6.28;;;16.40;56.50;;;;;;5053284;28;20033;-83
2022/07/02 00:52:02;;;;;;;9.68;5.90;;;16.40;56.90;;;;;;5035491;28;20173;-83
2022/07/02 00:54:28;;;;;;;8.52;6.07;;;16.40;56.70;;;;;;5051978;28;20048;-83
2022/07/02 00:56:54;;;;;;;6.97;5.55;;;16.40;56.90;;;;;;5048806;28;20439;-83
2022/07/02 00:59:22;;;;;;;11.70;5.82;;;16.40;56.90;;;;;;5049486;28;20033;-84
2022/07/02 01:01:47;;;;;;;10.25;5.70;;;16.40;57.10;;;;;;5052408;28;20017;-83
2022/07/02 01:04:15;;;;;;;13.82;5.93;;;16.40;57.10;;;;;;5053081;28;20036;-84
2022/07/02 01:06:45;;;;;;;9.20;5.40;;;16.40;57.30;;;;;;5053019;28;20171;-82
2022/07/02 01:11:59;;;;;;;12.73;7.03;;;16.30;57.60;;;;;;5049636;28;20024;-82
2022/07/02 01:14:26;;;;;;;12.45;6.05;;;16.30;57.90;;;;;;5052635;28;20145;-82
2022/07/02 01:16:52;;;;;;;11.73;5.90;;;16.30;58.00;;;;;;5052748;28;20036;-84
2022/07/02 01:19:19;;;;;;;10.00;6.15;;;16.20;58.20;;;;;;5052540;28;20399;-83
2022/07/02 01:22:24;;;;;;;9.82;5.65;;;16.20;58.30;;;;;;5052515;28;20025;-84
2022/07/02 01:24:53;;;;;;;13.27;6.20;;;16.30;58.30;;;;;;5033719;28;20075;-84
2022/07/02 01:27:20;;;;;;;12.93;7.05;;;16.30;59.20;;;;;;5052727;28;20389;-83
2022/07/02 01:29:46;;;;;;;10.82;6.38;;;16.30;59.90;;;;;;5052078;28;20104;-83
2022/07/02 01:32:12;;;;;;;12.80;7.20;;;16.30;60.00;;;;;;5052478;28;20086;-83
2022/07/02 01:34:43;;;;;;;13.65;6.18;;;16.30;60.20;;;;;;5034561;28;20029;-83
2022/07/02 01:37:11;;;;;;;9.77;6.53;;;16.40;60.40;;;;;;5052427;28;20051;-83
2022/07/02 01:39:41;;;;;;;12.85;6.75;;;16.40;60.40;;;;;;5050829;28;20025;-82
2022/07/02 01:42:07;;;;;;;14.63;6.55;;;16.40;60.10;;;;;;5052309;28;20021;-82
2022/07/02 01:44:34;;;;;;;10.02;6.00;;;16.40;60.00;;;;;;5052295;28;20039;-81
2022/07/02 01:47:03;;;;;;;12.82;6.88;;;16.50;60.00;;;;;;5049800;28;20165;-82
2022/07/02 01:49:29;;;;;;;11.75;7.63;;;16.50;59.70;;;;;;5056182;28;20076;-81
2022/07/02 01:51:55;;;;;;;20.60;6.30;;;16.50;59.30;;;;;;5064435;28;20032;-81
2022/07/02 01:54:21;;;;;;;16.13;7.32;;;16.60;59.10;;;;;;5052753;28;20027;-80
2022/07/02 01:56:47;;;;;;;15.95;7.13;;;16.60;58.90;;;;;;5052254;28;20029;-83
2022/07/02 01:59:13;;;;;;;16.95;6.90;;;16.60;58.70;;;;;;5052100;28;20025;-81
2022/07/02 02:01:40;;;;;;;11.13;6.85;;;16.70;58.30;;;;;;5052509;28;20029;-83
2022/07/02 02:04:06;;;;;;;14.98;6.57;;;16.70;58.10;;;;;;5052431;28;20021;-83
2022/07/02 02:13:23;;;;;;;14.35;6.70;;;16.70;58.00;;;;;;4830627;29;20102;-81
2022/07/02 02:15:49;;;;;;;16.25;7.40;;;16.80;57.80;;;;;;4944463;29;20039;-82
2022/07/02 02:18:15;;;;;;;12.23;7.72;;;16.80;58.20;;;;;;4956485;29;20130;-81
2022/07/02 02:20:40;;;;;;;27.25;8.13;;;16.80;59.00;;;;;;4956108;28;20079;-82
2022/07/02 02:23:07;;;;;;;17.40;7.97;;;16.80;59.80;;;;;;4956189;29;20019;-81
2022/07/02 02:25:33;;;;;;;19.38;8.60;;;16.80;60.50;;;;;;4940504;29;20031;-82
2022/07/02 02:27:59;;;;;;;19.33;9.40;;;16.80;60.60;;;;;;4956733;29;20485;-80
2022/07/02 02:30:25;;;;;;;19.67;8.13;;;16.80;61.20;;;;;;4966304;29;20106;-81
2022/07/02 02:32:51;;;;;;;15.50;8.70;;;16.80;61.30;;;;;;4963989;29;20043;-80
2022/07/02 02:35:17;;;;;;;15.27;7.78;;;16.90;61.10;;;;;;4939286;29;20123;-81
2022/07/02 02:37:43;;;;;;;16.70;8.65;;;16.90;60.90;;;;;;4953376;29;20019;-81
2022/07/02 02:40:09;;;;;;;28.52;10.23;;;17.00;60.50;;;;;;4942239;29;20202;-82
2022/07/02 02:42:35;;;;;;;20.10;9.70;;;17.00;60.50;;;;;;4956252;29;20118;-81
2022/07/02 02:45:01;;;;;;;19.80;9.05;;;17.10;59.90;;;;;;4955636;29;20024;-81
2022/07/02 02:47:27;;;;;;;17.88;8.93;;;17.20;59.50;;;;;;5035597;28;20044;-82
2022/07/02 02:49:53;;;;;;;24.92;9.60;;;17.20;59.10;;;;;;5055391;28;20025;-81
2022/07/02 02:52:19;;;;;;;24.35;9.88;;;17.30;59.10;;;;;;5055874;28;20052;-81
2022/07/02 02:54:45;;;;;;;21.48;8.90;;;17.30;59.40;;;;;;5054655;28;20082;-80
2022/07/02 02:57:11;;;;;;;16.77;8.48;;;17.40;59.10;;;;;;5029561;28;20414;-81
2022/07/02 02:59:36;;;;;;;17.30;8.75;;;17.50;59.10;;;;;;5051809;28;20018;-82
2022/07/02 03:02:03;;;;;;;19.67;8.45;;;17.60;58.80;;;;;;5051679;28;20056;-82
2022/07/02 03:04:28;;;;;;;13.95;8.30;;;17.70;58.30;;;;;;5055623;28;20107;-81
2022/07/02 03:06:54;;;;;;;20.90;9.68;;;17.80;58.00;;;;;;5057209;28;20055;-81
2022/07/02 03:09:20;;;;;;;23.30;9.05;;;17.90;58.50;;;;;;5055956;28;20036;-80
2022/07/02 03:11:46;;;;;;;21.50;8.50;;;18.00;58.10;;;;;;5037750;28;20124;-83
2022/07/02 03:14:11;;;;;;;16.15;8.10;;;18.10;58.40;;;;;;5037964;28;20021;-82
2022/07/02 03:16:37;;;;;;;20.05;8.70;;;18.40;58.00;;;;;;5056030;28;20034;-80
2022/07/02 03:19:03;;;;;;;17.15;8.02;;;18.60;57.30;;;;;;5036952;28;20028;-82
2022/07/02 03:21:29;;;;;;;18.92;7.00;;;18.70;56.90;;;;;;5054672;28;20500;-82
2022/07/02 03:23:55;;;;;;;15.38;7.10;;;18.70;55.30;;;;;;5036001;28;20060;-81
2022/07/02 03:26:20;;;;;;;8.25;6.53;;;18.70;55.50;;;;;;5054655;28;20028;-81
2022/07/02 03:28:46;;;;;;;19.42;6.82;;;18.70;54.00;;;;;;5053711;28;20041;-82
2022/07/02 03:31:12;;;;;;;15.07;7.57;;;18.60;53.70;;;;;;5053153;28;20498;-79
2022/07/02 03:33:38;;;;;;;10.25;6.50;;;18.60;55.30;;;;;;5055392;28;20390;-80
2022/07/02 03:36:04;;;;;;;15.65;7.70;;;18.60;54.20;;;;;;5056515;28;20028;-81
2022/07/02 03:38:30;;;;;;;15.75;6.90;;;18.60;56.00;;;;;;5058079;28;20390;-79
2022/07/02 03:40:56;;;;;;;14.55;7.18;;;18.70;54.90;;;;;;5055217;28;20025;-82
2022/07/02 03:43:22;;;;;;;12.23;7.57;;;18.70;55.40;;;;;;5055838;28;20017;-81
2022/07/02 03:45:48;;;;;;;12.02;6.43;;;18.70;55.50;;;;;;5033853;28;20043;-80
2022/07/02 03:48:14;;;;;;;16.98;5.72;;;18.80;53.30;;;;;;5054319;28;20040;-80
2022/07/02 03:50:42;;;;;;;12.98;5.97;;;18.90;53.10;;;;;;5054644;28;20511;-80
2022/07/02 03:53:08;;;;;;;10.93;5.97;;;18.90;53.20;;;;;;5055308;28;20009;-81
2022/07/02 03:55:34;;;;;;;12.70;6.35;;;19.00;52.60;;;;;;5055672;28;20518;-80
2022/07/02 03:58:00;;;;;;;9.75;5.85;;;19.10;52.00;;;;;;5054555;28;20108;-80
2022/07/02 04:00:27;;;;;;;9.32;5.10;;;19.20;51.50;;;;;;5054129;28;20027;-82
2022/07/02 04:02:52;;;;;;;9.60;5.45;;;19.30;51.10;;;;;;5053878;28;20118;-79
2022/07/02 04:05:18;;;;;;;14.60;5.18;;;19.40;51.10;;;;;;5053662;28;20017;-81
2022/07/02 04:07:44;;;;;;;14.25;6.28;;;19.50;50.70;;;;;;5053790;28;20092;-82
2022/07/02 04:10:10;;;;;;;14.40;6.30;;;19.60;50.70;;;;;;5036044;28;20040;-82
2022/07/02 04:12:36;;;;;;;18.08;5.22;;;19.60;50.80;;;;;;5054199;28;20625;-81
2022/07/02 04:15:03;;;;;;;9.50;5.78;;;19.70;49.60;;;;;;5035670;28;20036;-81
2022/07/02 04:17:29;;;;;;;9.45;5.72;;;19.70;49.80;;;;;;5036208;28;20013;-81
2022/07/02 04:19:55;;;;;;;12.35;6.00;;;19.60;50.30;;;;;;5053433;28;20559;-80
2022/07/02 04:22:21;;;;;;;16.42;5.82;;;19.70;50.60;;;;;;5036158;28;20036;-80
2022/07/02 04:24:46;;;;;;;6.50;5.00;;;19.80;50.40;;;;;;5053394;28;20021;-81
2022/07/02 04:27:12;;;;;;;10.85;5.07;;;19.90;49.80;;;;;;5036150;28;20013;-82
2022/07/02 04:29:38;;;;;;;7.68;4.50;;;20.00;49.30;;;;;;5053450;28;20025;-84
2022/07/02 04:32:04;;;;;;;9.52;5.07;;;20.10;48.50;;;;;;5053596;28;20434;-82
2022/07/02 04:34:30;;;;;;;5.70;4.57;;;20.30;47.90;;;;;;5053014;28;20032;-83
2022/07/02 04:36:56;;;;;;;11.95;4.68;;;20.40;47.60;;;;;;5052717;28;20029;-82
2022/07/02 04:39:21;;;;;;;7.85;4.50;;;20.40;46.90;;;;;;5053217;28;20045;-80
2022/07/02 04:41:47;;;;;;;5.63;3.78;;;20.40;46.70;;;;;;5053051;28;20028;-81
2022/07/02 04:44:13;;;;;;;8.57;3.97;;;20.40;45.50;;;;;;5053374;28;20110;-81
2022/07/02 04:46:39;;;;;;;5.43;3.83;;;20.20;45.90;;;;;;5053148;28;20407;-80
2022/07/02 04:49:05;;;;;;;6.82;4.60;;;20.20;46.20;;;;;;5035479;28;20502;-79
2022/07/02 04:51:30;;;;;;;6.95;4.30;;;20.20;46.30;;;;;;5035356;28;20028;-79
2022/07/02 04:53:56;;;;;;;7.43;4.05;;;20.30;46.20;;;;;;5052805;28;20103;-79
2022/07/02 04:56:22;;;;;;;9.57;4.10;;;20.20;46.20;;;;;;5044103;28;20030;-80
2022/07/02 04:58:47;;;;;;;10.90;3.83;;;20.10;46.70;;;;;;5052619;28;20040;-81
2022/07/02 05:01:13;;;;;;;8.40;4.18;;;20.10;46.10;;;;;;5054172;28;20641;-81
2022/07/02 05:03:39;;;;;;;9.38;4.43;;;20.00;46.20;;;;;;5035700;28;20383;-81
2022/07/02 05:06:05;;;;;;;6.82;4.70;;;20.10;46.40;;;;;;5053148;28;20029;-80
2022/07/02 05:08:31;;;;;;;7.68;4.03;;;20.20;47.00;;;;;;5052541;28;20496;-81
2022/07/02 05:10:56;;;;;;;7.00;4.47;;;20.30;46.50;;;;;;5052842;28;20108;-81
2022/07/02 05:13:22;;;;;;;9.38;4.57;;;20.50;46.40;;;;;;5053141;28;20478;-81
2022/07/02 05:15:49;;;;;;;7.55;5.00;;;20.90;45.80;;;;;;5057559;28;20021;-81
2022/07/02 05:18:16;;;;;;;5.20;4.30;;;21.70;44.20;;;;;;5067544;28;20029;-80
2022/07/02 05:20:44;;;;;;;5.03;4.00;;;22.60;42.90;;;;;;5062195;28;20047;-79
2022/07/02 05:23:10;;;;;;;6.68;3.75;;;23.70;40.80;;;;;;5052797;28;20492;-80
2022/07/02 05:25:35;;;;;;;7.75;4.22;;;24.70;38.70;;;;;;5052584;28;20052;-81
2022/07/02 05:28:01;;;;;;;6.97;4.20;;;25.40;37.40;;;;;;5052964;28;20104;-81
2022/07/02 05:30:27;;;;;;;8.90;4.38;;;25.90;36.50;;;;;;5052757;28;20032;-79
2022/07/02 05:32:53;;;;;;;9.68;4.35;;;26.40;36.30;;;;;;5034593;28;20025;-80
2022/07/02 05:35:19;;;;;;;6.18;4.13;;;26.80;35.40;;;;;;5049272;28;20529;-82
2022/07/02 05:37:45;;;;;;;6.35;3.85;;;26.70;34.80;;;;;;5034605;28;20021;-80
2022/07/02 05:40:11;;;;;;;8.07;3.65;;;26.80;34.70;;;;;;5052028;28;20017;-82
2022/07/02 05:42:37;;;;;;;9.30;4.53;;;27.20;34.60;;;;;;5035050;28;20025;-82
2022/07/02 05:45:03;;;;;;;7.00;4.22;;;27.80;34.10;;;;;;5056555;28;20025;-81
2022/07/02 05:47:29;;;;;;;7.13;3.88;;;28.20;33.60;;;;;;5054474;28;20394;-81
2022/07/02 05:49:55;;;;;;;9.73;3.60;;;28.60;33.50;;;;;;5054826;28;20045;-82
2022/07/02 05:52:21;;;;;;;9.75;4.65;;;29.00;33.00;;;;;;5036668;28;20087;-82
2022/07/02 05:54:47;;;;;;;4.70;3.77;;;29.30;32.70;;;;;;5054573;28;20025;-81
2022/07/02 05:57:13;;;;;;;11.18;4.65;;;30.10;31.60;;;;;;5055367;28;20044;-82
2022/07/02 05:59:39;;;;;;;5.85;4.35;;;30.70;31.10;;;;;;5055662;28;20044;-80
2022/07/02 06:02:06;;;;;;;7.00;3.80;;;31.40;30.60;;;;;;5059354;28;20041;-79
2022/07/02 06:04:32;;;;;;;9.23;3.90;;;31.40;30.30;;;;;;5056646;28;20044;-80
2022/07/02 06:09:46;;;;;;;9.98;4.45;;;31.10;30.60;;;;;;5056243;28;20090;-82
2022/07/02 06:12:12;;;;;;;8.48;4.43;;;31.70;30.00;;;;;;5057553;28;20017;-82
2022/07/02 06:14:38;;;;;;;8.20;4.68;;;32.50;30.10;;;;;;5056132;28;20086;-82
2022/07/02 06:17:04;;;;;;;12.53;4.10;;;33.20;29.80;;;;;;5055533;28;20071;-82
2022/07/02 06:19:29;;;;;;;6.73;4.57;;;33.80;29.00;;;;;;5045720;28;20039;-81
2022/07/02 06:21:55;;;;;;;13.87;5.17;;;34.30;28.70;;;;;;5054485;28;20096;-82
2022/07/02 06:24:21;;;;;;;9.13;4.77;;;34.20;28.60;;;;;;5055513;28;20029;-81
2022/07/02 06:26:47;;;;;;;6.57;3.73;;;34.00;28.50;;;;;;5053787;28;20482;-81
2022/07/02 06:29:12;;;;;;;4.80;3.87;;;34.30;28.70;;;;;;5055238;28;20032;-81
2022/07/02 06:31:38;;;;;;;6.33;4.00;;;35.30;28.20;;;;;;5038154;28;20091;-80
2022/07/02 06:34:04;;;;;;;6.33;4.10;;;36.50;27.60;;;;;;5056179;28;20029;-79
2022/07/02 06:36:30;;;;;;;8.32;3.63;;;36.60;27.10;;;;;;5055938;28;20017;-82
2022/07/02 06:38:56;;;;;;;5.65;3.97;;;36.40;27.40;;;;;;5055176;28;20021;-81
2022/07/02 06:44:07;;;;;;;7.40;3.50;;;37.50;26.50;;;;;;5057404;28;20377;-82
2022/07/02 06:46:35;;;;;;;7.80;4.68;;;37.40;26.30;;;;;;5055387;28;20108;-81
2022/07/02 06:49:02;;;;;;;8.20;7.35;;;37.20;26.40;;;;;;5054757;28;20094;-81
2022/07/02 06:51:28;;;;;;;6.82;4.50;;;36.50;26.50;;;;;;5037285;28;20053;-79
2022/07/02 06:54:00;;;;;;;9.55;4.20;;;36.20;26.70;;;;;;5055261;28;20028;-80
2022/07/02 06:56:32;;;;;;;6.70;4.45;;;36.50;26.40;;;;;;5034879;28;20026;-79
2022/07/02 06:58:57;;;;;;;4.35;3.58;;;36.40;26.70;;;;;;5055915;28;20033;-83
2022/07/02 07:01:23;;;;;;;8.57;3.75;;;36.90;26.40;;;;;;5059166;28;20056;-80
2022/07/02 07:03:49;;;;;;;6.88;4.00;;;37.80;26.30;;;;;;5058169;28;20025;-82
2022/07/02 07:06:15;;;;;;;6.50;3.50;;;38.80;26.00;;;;;;5058019;28;20023;-80
2022/07/02 07:08:43;;;;;;;6.03;3.80;;;40.30;25.90;;;;;;5040704;28;20029;-80
2022/07/02 07:11:09;;;;;;;4.97;3.78;;;40.30;25.10;;;;;;5041665;28;20104;-80
2022/07/02 07:13:35;;;;;;;5.07;3.40;;;40.60;25.40;;;;;;5043937;28;20056;-81
2022/07/02 07:16:01;;;;;;;4.22;3.60;;;41.10;24.90;;;;;;5028716;28;20095;-84
2022/07/02 07:18:26;;;;;;;4.60;4.03;;;41.00;24.90;;;;;;5060849;28;20025;-83
2022/07/02 07:20:53;;;;;;;5.97;3.53;;;41.10;24.90;;;;;;5059584;28;20043;-82
2022/07/02 07:23:18;;;;;;;;;;;40.50;24.80;;;;;;5059649;28;20021;-82
2022/07/02 07:25:44;;;;;;;4.43;3.90;;;39.00;25.40;;;;;;5041467;28;20011;-81
2022/07/02 07:28:10;;;;;;;7.40;3.90;;;38.60;25.50;;;;;;5040567;28;20123;-81
2022/07/02 07:30:36;;;;;;;6.63;3.13;;;39.00;25.20;;;;;;5058693;28;20131;-81
2022/07/02 07:33:02;;;;;;;8.23;3.72;;;39.20;25.40;;;;;;5041398;28;20068;-79
2022/07/02 07:35:28;;;;;;;5.90;3.80;;;39.40;25.40;;;;;;5059205;28;20099;-81
2022/07/02 07:38:00;;;;;;;6.05;3.10;;;40.00;25.10;;;;;;5058525;28;20013;-82
2022/07/02 07:40:29;;;;;;;5.35;3.40;;;40.80;24.60;;;;;;5040276;28;20025;-82
2022/07/02 07:42:55;;;;;;;5.50;3.45;;;41.50;24.40;;;;;;5058749;28;20060;-82
2022/07/02 07:45:21;;;;;;;6.63;3.55;;;41.40;24.30;;;;;;5059346;28;20032;-83
2022/07/02 07:47:47;;;;;;;6.47;3.65;;;40.50;24.40;;;;;;5058371;28;20033;-82
2022/07/02 07:50:12;;;;;;;6.50;3.15;;;39.80;24.80;;;;;;5039116;28;20380;-82
2022/07/02 07:52:38;;;;;;;4.50;3.45;;;40.10;24.90;;;;;;5057745;28;20029;-82
2022/07/02 07:55:05;;;;;;;6.28;3.30;;;40.30;24.80;;;;;;5056451;28;20032;-81
2022/07/02 07:57:31;;;;;;;5.63;3.70;;;40.30;24.90;;;;;;5057897;28;20045;-84
2022/07/02 07:59:57;;;;;;;;;;;40.50;24.60;;;;;;5056147;28;20105;-82
2022/07/02 08:02:22;;;;;;;8.75;3.58;;;40.30;25.20;;;;;;5056468;28;20424;-81
2022/07/02 08:04:48;;;;;;;5.75;3.80;;;40.20;24.60;;;;;;5060702;28;20072;-80
2022/07/02 08:07:14;;;;;;;4.32;3.17;;;40.00;24.90;;;;;;5059215;28;20116;-80
2022/07/02 08:09:40;;;;;;;5.35;3.20;;;40.10;24.50;;;;;;5041176;28;20044;-82
2022/07/02 08:12:06;;;;;;;6.85;2.78;;;40.40;24.50;;;;;;5058201;28;20504;-82
2022/07/02 08:14:32;;;;;;;5.78;3.42;;;40.50;24.30;;;;;;5053440;28;20029;-82
2022/07/02 08:16:57;;;;;;;4.68;3.00;;;40.70;24.10;;;;;;5049843;28;20082;-82
2022/07/02 08:19:27;;;;;;;5.75;2.92;;;;;;;;;;5046994;28;20025;-86
2022/07/02 08:21:53;;;;;;;6.10;3.38;;;41.30;23.50;;;;;;5057165;28;20013;-82
2022/07/02 08:24:18;;;;;;;;;;;41.40;24.00;;;;;;5040255;28;20029;-81
2022/07/02 08:26:44;;;;;;;7.35;3.47;;;41.50;24.30;;;;;;5057571;28;19939;-83
2022/07/02 08:29:10;;;;;;;7.20;3.40;;;41.70;24.00;;;;;;5058320;28;20037;-82
2022/07/02 08:31:36;;;;;;;9.15;3.95;;;41.00;24.00;;;;;;5036686;28;20033;-84
2022/07/02 08:34:01;;;;;;;5.40;3.30;;;41.10;24.20;;;;;;5056374;28;20025;-81
2022/07/02 08:36:27;;;;;;;10.90;3.40;;;40.20;24.10;;;;;;5056916;28;20078;-82
2022/07/02 08:38:53;;;;;;;7.32;3.33;;;39.90;24.30;;;;;;5039545;28;20028;-85
2022/07/02 08:41:19;;;;;;;4.43;3.08;;;40.60;24.10;;;;;;5056889;28;20021;-83
2022/07/02 08:43:49;;;;;;;7.07;3.58;;;40.70;24.40;;;;;;5057001;28;20048;-80
2022/07/02 08:46:16;;;;;;;4.85;3.65;;;42.00;24.10;;;;;;5040206;28;20017;-86
2022/07/02 08:48:42;;;;;;;9.82;3.22;;;42.90;23.80;;;;;;5056380;28;20391;-82
2022/07/02 08:51:10;;;;;;;4.03;3.35;;;43.00;23.90;;;;;;5037601;28;20111;-84
2022/07/02 08:53:37;;;;;;;7.10;3.55;;;42.90;23.50;;;;;;5057612;28;20045;-85
2022/07/02 08:56:03;;;;;;;4.80;3.38;;;42.00;23.40;;;;;;5053244;28;20096;-84
2022/07/02 08:58:29;;;;;;;;;;;41.10;23.90;;;;;;5036499;28;20145;-83
2022/07/02 09:00:57;;;;;;;8.32;3.65;;;41.20;24.20;;;;;;5036038;28;19947;-84
2022/07/02 09:03:23;;;;;;;5.40;2.90;;;40.90;23.70;;;;;;5031917;28;20041;-80
2022/07/02 09:05:50;;;;;;;;;;;41.00;23.70;;;;;;5022977;28;20013;-79
2022/07/02 09:08:16;;;;;;;7.43;3.80;;;41.10;24.00;;;;;;5036428;28;19951;-80
2022/07/02 09:10:42;;;;;;;9.32;3.45;;;40.70;24.00;;;;;;5030162;28;20033;-79
2022/07/02 09:13:10;;;;;;;;;;;40.80;24.10;;;;;;5035417;28;20018;-80
2022/07/02 09:15:36;;;;;;;3.85;3.33;;;40.80;24.10;;;;;;5035448;28;19912;-81
2022/07/02 09:18:02;;;;;;;;;;;40.50;23.90;;;;;;5035523;28;20022;-80
2022/07/02 09:20:28;;;;;;;5.18;3.30;;;40.40;24.20;;;;;;5034485;28;19912;-82
2022/07/02 09:22:54;;;;;;;8.10;3.13;;;40.40;24.00;;;;;;5036028;28;20014;-78
2022/07/02 09:25:25;;;;;;;3.70;3.10;;;40.40;23.90;;;;;;5036082;28;20037;-80
2022/07/02 09:28:03;;;;;;;6.43;3.58;;;41.10;23.90;;;;;;5035648;28;20025;-80
2022/07/02 09:30:36;;;;;;;6.15;3.60;;;41.50;23.80;;;;;;5034968;28;20060;-79
2022/07/02 09:35:59;;;;;;;;;;;40.30;23.20;;;;;;5026429;28;20026;-84
2022/07/02 09:38:25;;;;;;;5.65;2.95;;;40.00;24.00;;;;;;5034759;28;20267;-82
2022/07/02 09:41:01;;;;;;;10.10;3.70;;;39.90;24.00;;;;;;5035780;28;20383;-82
2022/07/02 09:43:32;;;;;;;5.28;3.10;;;39.60;24.00;;;;;;5036497;28;20026;-83
2022/07/02 09:45:59;;;;;;;8.43;3.35;;;39.40;24.10;;;;;;5027311;28;20053;-84
2022/07/02 09:48:25;;;;;;;7.30;3.45;;;40.00;24.40;;;;;;5049535;28;20036;-85
2022/07/02 09:50:54;;;;;;;4.40;3.25;;;39.90;23.70;;;;;;5030190;28;20049;-86
2022/07/02 09:53:20;;;;;;;10.82;3.08;;;39.40;24.40;;;;;;5029429;28;20052;-84
2022/07/02 09:55:47;;;;;;;;;;;39.30;23.60;;;;;;5034924;28;20030;-83
2022/07/02 09:58:14;;;;;;;5.25;2.55;;;39.40;24.00;;;;;;5048778;28;20341;-82
2022/07/02 10:00:47;;;;;;;5.88;3.30;;;39.20;24.00;;;;;;5055542;28;20025;-84
2022/07/02 10:03:12;;;;;;;5.03;3.00;;;39.00;24.10;;;;;;5057523;28;20024;-82
2022/07/02 10:05:39;;;;;;;4.65;3.20;;;39.10;24.20;;;;;;5062271;28;20022;-83
2022/07/02 10:08:05;;;;;;;5.05;3.30;;;39.50;23.70;;;;;;5060635;28;20033;-82
2022/07/02 10:10:38;;;;;;;;;;;40.20;23.70;;;;;;5043844;28;20123;-81
2022/07/02 10:13:05;;;;;;;4.38;3.35;;;40.60;23.90;;;;;;5057131;28;20485;-82
2022/07/02 10:15:36;;;;;;;9.32;3.00;;;40.60;23.50;;;;;;5036763;28;20064;-83
2022/07/02 10:18:03;;;;;;;6.78;3.13;;;40.60;23.60;;;;;;5026042;28;20104;-87
2022/07/02 10:20:30;;;;;;;7.32;3.70;;;40.60;23.60;;;;;;5054666;28;20037;-82
2022/07/02 10:23:03;;;;;;;7.35;3.05;;;40.20;23.70;;;;;;5053864;28;20021;-82
2022/07/02 10:25:29;;;;;;;8.73;3.30;;;39.70;24.00;;;;;;5052943;28;20025;-83
2022/07/02 10:27:56;;;;;;;6.88;3.10;;;39.50;24.10;;;;;;5036789;28;20067;-82
2022/07/02 10:30:22;;;;;;;;;;;39.50;24.00;;;;;;5055613;28;20033;-81
2022/07/02 10:33:01;;;;;;;5.40;3.00;;;39.40;24.20;;;;;;5033664;28;20290;-82
2022/07/02 10:35:28;;;;;;;7.25;3.35;;;38.00;24.40;;;;;;5045292;28;20029;-81
2022/07/02 10:38:00;;;;;;;5.82;3.45;;;36.10;24.80;;;;;;5060011;28;20029;-80
2022/07/02 10:40:27;;;;;;;6.78;3.70;;;34.10;25.50;;;;;;5040572;28;20021;-81
2022/07/02 10:42:57;;;;;;;8.70;3.97;;;32.20;26.70;;;;;;5058834;28;20029;-84
2022/07/02 10:45:24;;;;;;;6.78;3.40;;;30.90;27.50;;;;;;5041667;28;20086;-80
2022/07/02 10:48:03;;;;;;;7.70;3.50;;;29.90;28.40;;;;;;5059698;28;20563;-80
2022/07/02 10:50:38;;;;;;;5.60;3.10;;;28.80;28.80;;;;;;5064128;28;20310;-80
2022/07/02 10:53:17;;;;;;;8.02;3.30;;;28.10;29.40;;;;;;5066815;28;20526;-80
2022/07/02 10:55:58;;;;;;;6.57;3.67;;;27.30;30.80;;;;;;5062888;28;20359;-80
2022/07/02 10:58:31;;;;;;;10.45;3.53;;;26.70;31.70;;;;;;5044964;28;20079;-79
2022/07/02 11:01:08;;;;;;;5.10;3.53;;;26.30;32.20;;;;;;5059088;28;20447;-81
2022/07/02 11:03:34;;;;;;;6.43;3.50;;;26.10;32.50;;;;;;5056545;28;20022;-79
2022/07/02 11:06:01;;;;;;;8.27;3.15;;;25.80;32.60;;;;;;5040888;28;20417;-80
2022/07/02 11:08:51;;;;;;;5.55;3.92;;;25.60;33.60;;;;;;5037939;28;20017;-81
2022/07/02 11:11:38;;;;;;;5.55;3.35;;;25.50;32.90;;;;;;5027139;28;20032;-81
2022/07/02 11:14:11;;;;;;;6.50;3.00;;;25.50;33.40;;;;;;5039239;28;20009;-80
2022/07/02 11:16:45;;;;;;;9.45;4.00;;;25.50;32.80;;;;;;5039014;28;20029;-81
2022/07/02 11:19:24;;;;;;;7.03;3.72;;;25.50;32.30;;;;;;5040105;28;20017;-80
2022/07/02 11:21:55;;;;;;;5.03;3.00;;;25.40;32.20;;;;;;5014760;28;20398;-81
2022/07/02 11:24:29;;;;;;;7.18;3.08;;;25.30;32.70;;;;;;5044668;28;20029;-80
2022/07/02 11:26:55;;;;;;;6.82;3.30;;;25.30;33.30;;;;;;5032611;28;20021;-80
2022/07/02 11:29:21;;;;;;;4.95;3.35;;;25.30;33.70;;;;;;5051022;28;20115;-81
2022/07/02 11:31:49;;;;;;;6.47;3.20;;;25.30;33.30;;;;;;5037433;28;20367;-80
2022/07/02 11:34:23;;;;;;;4.40;2.65;;;25.40;33.90;;;;;;5038551;28;20025;-82
2022/07/02 11:36:50;;;;;;;6.80;3.30;;;25.30;33.80;;;;;;5021078;28;20036;-81
2022/07/02 11:39:18;;;;;;;12.43;4.05;;;25.20;34.70;;;;;;5038831;28;20038;-82
2022/07/02 11:41:46;;;;;;;7.95;3.28;;;25.10;34.10;;;;;;5038765;28;20033;-81
2022/07/02 11:44:24;;;;;;;10.48;5.28;;;25.20;35.10;;;;;;5036682;28;20471;-82
2022/07/02 11:46:56;;;;;;;6.57;3.50;;;25.20;34.80;;;;;;5032670;28;20029;-82
2022/07/02 11:49:26;;;;;;;5.90;3.65;;;25.20;34.60;;;;;;5036057;28;20025;-81
2022/07/02 11:51:54;;;;;;;9.30;3.58;;;25.10;34.80;;;;;;5026983;28;20036;-81
2022/07/02 11:54:22;;;;;;;6.93;3.60;;;25.00;35.10;;;;;;5038780;28;20021;-80
2022/07/02 11:56:49;;;;;;;8.55;3.80;;;25.00;35.80;;;;;;5044861;28;20081;-80
2022/07/02 11:59:19;;;;;;;9.18;3.90;;;25.10;35.30;;;;;;5039760;28;20037;-78
2022/07/02 12:01:47;;;;;;;8.60;3.13;;;25.10;35.00;;;;;;5058216;28;20033;-81
2022/07/02 12:04:19;;;;;;;6.50;3.67;;;25.10;35.30;;;;;;5050808;28;20025;-79
2022/07/02 12:06:49;;;;;;;6.43;2.90;;;25.00;35.60;;;;;;5058317;28;20104;-80
2022/07/02 12:09:17;;;;;;;5.53;3.35;;;25.00;35.70;;;;;;5059083;28;20029;-80
2022/07/02 12:11:45;;;;;;;11.10;3.92;;;25.00;35.70;;;;;;5058703;28;20024;-80
2022/07/02 12:14:13;;;;;;;9.73;3.97;;;25.00;36.00;;;;;;5056710;28;20087;-81
2022/07/02 12:16:40;;;;;;;4.07;3.05;;;25.00;35.60;;;;;;5036661;28;20474;-82
2022/07/02 12:19:08;;;;;;;6.50;3.28;;;25.00;35.30;;;;;;5055042;28;20033;-80
2022/07/02 12:21:41;;;;;;;5.35;2.80;;;25.00;35.60;;;;;;5053914;28;20020;-82
2022/07/02 12:24:22;;;;;;;6.28;3.60;;;25.00;35.90;;;;;;5051173;28;20021;-82
2022/07/02 12:26:50;;;;;;;11.43;4.18;;;25.10;36.20;;;;;;5051418;28;20099;-81
2022/07/02 12:32:12;;;;;;;7.80;4.38;;;25.20;35.80;;;;;;5051095;28;20036;-79
2022/07/02 12:34:41;;;;;;;6.97;3.35;;;25.20;35.80;;;;;;5054168;28;20021;-83
2022/07/02 12:37:10;;;;;;;5.95;3.15;;;25.20;35.60;;;;;;5054562;28;20021;-83
2022/07/02 12:39:43;;;;;;;6.32;3.35;;;25.20;35.30;;;;;;5053846;28;20023;-82
2022/07/02 12:42:20;;;;;;;4.45;3.60;;;25.20;35.50;;;;;;5053914;28;20025;-84
2022/07/02 12:45:06;;;;;;;11.55;3.85;;;25.20;35.70;;;;;;5054166;28;20025;-85
2022/07/02 12:47:37;;;;;;;9.43;3.45;;;25.20;35.80;;;;;;5024762;28;20033;-84
2022/07/02 12:50:14;;;;;;;4.07;3.08;;;25.20;36.10;;;;;;5053724;28;20036;-81
2022/07/02 12:52:48;;;;;;;13.63;3.50;;;25.20;35.70;;;;;;5049876;28;20028;-85
2022/07/02 12:55:25;;;;;;;5.32;3.40;;;25.20;35.10;;;;;;5039060;28;20120;-84
2022/07/02 12:57:52;;;;;;;9.88;3.53;;;25.20;34.90;;;;;;5026752;28;20069;-85
2022/07/02 13:00:18;;;;;;;6.03;3.60;;;25.20;34.80;;;;;;5033352;28;20155;-85
2022/07/02 13:02:44;;;;;;;6.70;3.97;;;25.20;35.00;;;;;;5033686;28;20034;-84
2022/07/02 13:05:09;;;;;;;12.07;3.42;;;25.20;35.30;;;;;;5033675;28;20033;-85
2022/07/02 13:07:35;;;;;;;6.03;3.17;;;25.30;35.70;;;;;;5033753;28;20102;-86
2022/07/02 13:10:01;;;;;;;6.95;3.08;;;25.30;35.90;;;;;;5033176;28;20109;-84